Currently N/A°F in Wildomar, California, USA
N/A°F Alert
N/A°F / N/A°F
N/A
N/A
Friday, August 14, 2020 6:02 PM PDT

Wildomar, California Weather Summary
Last 36 Hours

Temperature Winds Hourly Humidity Dewpoint
Time Report Norm Report Norm Max Gusts Precip. Rpt. Norm Rpt. Norm Pressure
1Sun 04:39 PM  71.3°F  88°F  calm  6 mph  none  0.00"  37%  28%  43°F  50°F  N/A
Sun 04:00 PM  72.7°F  89°F  calm  6 mph  none  0.00"  36%  27%  43°F  49°F  N/A
Sun 03:00 PM  12.6°F  90°F  calm  5 mph  none  0.00"  34%  27%  -12°F  50°F  N/A
3Sun 02:09 PM  3.5°F  89°F  calm  4 mph  none  ----  34%  28%  -20°F  50°F  N/A
Sun 02:00 PM  3.7°F  88°F  calm  4 mph  none  0.00"  34%  28%  -20°F  50°F  N/A
2Sun 01:07 PM  83.6°F  87°F  calm  4 mph  none  ----  30%  30%  48°F  51°F  N/A
Sun 01:00 PM  82.9°F  86°F  calm  4 mph  none  0.00"  30%  31%  47°F  51°F  N/A
Sun 12:00 PM  80.0°F  83°F  calm  3 mph  none  0.00"  34%  35%  48°F  51°F  N/A
Sun 11:00 AM  78.0°F  79°F  calm  3 mph  none  0.00"  37%  42%  49°F  53°F  N/A
Sun 10:00 AM  71.5°F  73°F  calm  2 mph  none  0.00"  N/A  50%  N/A°F  53°F  N/A
Sun 09:00 AM  67.1°F  68°F  calm  2 mph  none  0.00"  N/A  62%  N/A°F  54°F  N/A
Sun 08:00 AM  61.2°F  64°F  calm  1 mph  9 mph  0.00"  79%  74%  54°F  55°F  N/A
Sun 07:00 AM  53.7°F  58°F  calm  1 mph  none  0.00"  91%  84%  51°F  53°F  N/A
Sun 06:00 AM  51.6°F  57°F  calm  calm  none  0.00"  91%  84%  49°F  52°F  N/A
Sun 05:00 AM  52.3°F  57°F  calm  calm  none  0.00"  90%  83%  49°F  52°F  N/A
Sun 04:00 AM  52.4°F  57°F  calm  calm  none  0.00"  87%  82%  49°F  51°F  N/A
Sun 03:00 AM  53.8°F  57°F  calm  calm  none  0.00"  84%  81%  49°F  51°F  N/A
Sun 02:00 AM  54.6°F  58°F  calm  calm  none  0.00"  84%  79%  50°F  51°F  N/A
Sun 01:00 AM  55.5°F  59°F  calm  calm  none  0.00"  82%  77%  50°F  52°F  N/A
Sun 12:00 AM  56.8°F  61°F  calm  calm  7 mph  0.00"  77%  74%  49°F  52°F  N/A
Sat 11:00 PM  59.6°F  62°F  calm  1 mph  none  0.00"  75%  72%  51°F  53°F  N/A
Sat 10:00 PM  61.9°F  64°F  calm  1 mph  none  0.00"  71%  68%  52°F  53°F  N/A
Sat 09:00 PM  65.9°F  68°F  calm  1 mph  none  0.00"  62%  62%  52°F  54°F  N/A
Sat 08:00 PM  68.6°F  72°F  calm  2 mph  none  0.00"  55%  53%  51°F  53°F  N/A
Sat 07:00 PM  74.2°F  78°F  calm  4 mph  none  0.00"  48%  42%  52°F  53°F  N/A
Sat 06:00 PM  77.2°F  83°F  calm  6 mph  none  0.00"  44%  35%  53°F  52°F  N/A
Sat 05:00 PM  80.2°F  86°F  calm  6 mph  none  0.00"  38%  30%  51°F  50°F  N/A
Sat 04:00 PM  83.7°F  89°F  calm  6 mph  none  0.00"  37%  27%  54°F  49°F  N/A
Sat 03:00 PM  85.8°F  89°F  calm  5 mph  29 mph  0.00"  32%  27%  52°F  50°F  N/A
Sat 02:00 PM  83.6°F  88°F  calm  4 mph  none  0.00"  32%  28%  50°F  50°F  N/A
Sat 01:00 PM  82.3°F  86°F  calm  4 mph  none  0.00"  34%  31%  50°F  51°F  N/A
Sat 12:00 PM  79.0°F  82°F  calm  4 mph  none  0.00"  39%  35%  51°F  51°F  N/A
Sat 11:00 AM  75.0°F  78°F  calm  3 mph  none  0.00"  46%  42%  52°F  53°F  N/A
Sat 10:00 AM  70.3°F  73°F  calm  2 mph  none  0.00"  60%  51%  55°F  54°F  N/A
Sat 09:00 AM  64.4°F  68°F  calm  2 mph  none  0.00"  75%  62%  56°F  54°F  N/A
Sat 08:00 AM  59.6°F  64°F  calm  1 mph  none  0.00"  84%  75%  55°F  55°F  N/A
Sat 07:00 AM  53.4°F  58°F  calm  1 mph  none  0.00"  94%  84%  52°F  53°F  N/A
Sat 06:00 AM  51.0°F  57°F  calm  calm  none  0.00"  92%  84%  49°F  52°F  N/A
Sat 05:00 AM  52.7°F  57°F  calm  calm  none  0.00"  90%  84%  50°F  52°F  N/A

  1. Current weather data. No green row appears if the current weather data is also the high or low for the current day.
  2. High temperature for the current day.
  3. Low temperature for the current day.

The Wildomar, California weather pages are a service of WeatherCurrents. Wildomar is located southwestern Riverside County, California, north of Murrieta and south of Lake Elsinore.
Copyright ©2020  WeatherCurrents. All rights reserved. - Submit questions and comments - Privacy Policy

This page automatically refreshes every 10 minutes.